sensor_id;sensor_type;location;lat;lon;timestamp;temperature;humidity
20946;DHT22;10632;51.276;7.116;2023-04-12T00:00:50;8.90;99.90
20946;DHT22;10632;51.276;7.116;2023-04-12T00:03:27;8.90;99.90
20946;DHT22;10632;51.276;7.116;2023-04-12T00:06:00;8.90;99.90
20946;DHT22;10632;51.276;7.116;2023-04-12T00:08:37;8.90;99.90
20946;DHT22;10632;51.276;7.116;2023-04-12T00:11:06;8.80;99.90
20946;DHT22;10632;51.276;7.116;2023-04-12T00:13:37;8.80;99.90
20946;DHT22;10632;51.276;7.116;2023-04-12T00:16:12;8.70;99.90
20946;DHT22;10632;51.276;7.116;2023-04-12T00:18:45;8.70;99.90
20946;DHT22;10632;51.276;7.116;2023-04-12T00:21:20;8.60;99.90
20946;DHT22;10632;51.276;7.116;2023-04-12T00:23:51;8.60;99.90
20946;DHT22;10632;51.276;7.116;2023-04-12T00:26:19;8.60;99.90
20946;DHT22;10632;51.276;7.116;2023-04-12T00:28:57;8.60;99.90
20946;DHT22;10632;51.276;7.116;2023-04-12T00:31:39;8.50;99.90
20946;DHT22;10632;51.276;7.116;2023-04-12T00:34:28;8.40;99.90
20946;DHT22;10632;51.276;7.116;2023-04-12T00:36:58;8.30;99.90
20946;DHT22;10632;51.276;7.116;2023-04-12T00:39:42;8.30;99.90
20946;DHT22;10632;51.276;7.116;2023-04-12T00:42:20;8.20;99.90
20946;DHT22;10632;51.276;7.116;2023-04-12T00:44:55;8.20;99.90
20946;DHT22;10632;51.276;7.116;2023-04-12T00:47:33;8.20;99.90
20946;DHT22;10632;51.276;7.116;2023-04-12T00:50:13;8.10;99.90
20946;DHT22;10632;51.276;7.116;2023-04-12T00:52:48;8.00;99.90
20946;DHT22;10632;51.276;7.116;2023-04-12T00:55:19;8.00;99.90
20946;DHT22;10632;51.276;7.116;2023-04-12T00:58:03;7.90;99.90
20946;DHT22;10632;51.276;7.116;2023-04-12T01:00:37;7.90;99.90
20946;DHT22;10632;51.276;7.116;2023-04-12T01:03:09;7.90;99.90
20946;DHT22;10632;51.276;7.116;2023-04-12T01:08:49;7.70;99.90
20946;DHT22;10632;51.276;7.116;2023-04-12T01:11:41;7.60;99.90
20946;DHT22;10632;51.276;7.116;2023-04-12T01:14:19;7.60;99.90
20946;DHT22;10632;51.276;7.116;2023-04-12T01:17:03;7.60;99.90
20946;DHT22;10632;51.276;7.116;2023-04-12T01:20:08;7.50;99.90
20946;DHT22;10632;51.276;7.116;2023-04-12T01:23:30;7.50;99.90
20946;DHT22;10632;51.276;7.116;2023-04-12T01:26:14;7.50;99.90
20946;DHT22;10632;51.276;7.116;2023-04-12T01:29:00;7.40;99.90
20946;DHT22;10632;51.276;7.116;2023-04-12T01:31:31;7.40;99.90
20946;DHT22;10632;51.276;7.116;2023-04-12T01:34:07;7.40;99.90
20946;DHT22;10632;51.276;7.116;2023-04-12T01:36:38;7.40;99.90
20946;DHT22;10632;51.276;7.116;2023-04-12T01:41:59;7.30;99.90
20946;DHT22;10632;51.276;7.116;2023-04-12T01:44:47;7.30;99.90
20946;DHT22;10632;51.276;7.116;2023-04-12T01:47:20;7.30;99.90
20946;DHT22;10632;51.276;7.116;2023-04-12T01:50:13;7.20;99.90
20946;DHT22;10632;51.276;7.116;2023-04-12T01:52:59;7.20;99.90
20946;DHT22;10632;51.276;7.116;2023-04-12T01:55:49;7.20;99.90
20946;DHT22;10632;51.276;7.116;2023-04-12T01:58:24;7.20;99.90
20946;DHT22;10632;51.276;7.116;2023-04-12T02:01:03;7.20;99.90
20946;DHT22;10632;51.276;7.116;2023-04-12T02:03:31;7.20;99.90
20946;DHT22;10632;51.276;7.116;2023-04-12T02:06:15;7.10;99.90
20946;DHT22;10632;51.276;7.116;2023-04-12T02:09:15;7.10;99.90
20946;DHT22;10632;51.276;7.116;2023-04-12T02:12:03;7.10;99.90
20946;DHT22;10632;51.276;7.116;2023-04-12T02:15:05;7.10;99.90
20946;DHT22;10632;51.276;7.116;2023-04-12T02:17:26;7.10;99.90
20946;DHT22;10632;51.276;7.116;2023-04-12T02:20:00;7.10;99.90
20946;DHT22;10632;51.276;7.116;2023-04-12T02:22:41;7.00;99.90
20946;DHT22;10632;51.276;7.116;2023-04-12T02:25:11;7.00;99.90
20946;DHT22;10632;51.276;7.116;2023-04-12T02:27:48;7.00;99.90
20946;DHT22;10632;51.276;7.116;2023-04-12T02:30:24;7.00;99.90
20946;DHT22;10632;51.276;7.116;2023-04-12T02:32:58;7.00;99.90
20946;DHT22;10632;51.276;7.116;2023-04-12T02:35:32;7.00;99.90
20946;DHT22;10632;51.276;7.116;2023-04-12T02:38:03;7.00;99.90
20946;DHT22;10632;51.276;7.116;2023-04-12T02:40:39;6.90;99.90
20946;DHT22;10632;51.276;7.116;2023-04-12T02:43:17;6.90;99.90
20946;DHT22;10632;51.276;7.116;2023-04-12T02:45:55;6.90;99.90
20946;DHT22;10632;51.276;7.116;2023-04-12T02:48:31;6.90;99.90
20946;DHT22;10632;51.276;7.116;2023-04-12T02:51:02;6.90;99.90
20946;DHT22;10632;51.276;7.116;2023-04-12T02:53:34;6.90;99.90
20946;DHT22;10632;51.276;7.116;2023-04-12T02:56:03;6.90;99.90
20946;DHT22;10632;51.276;7.116;2023-04-12T02:58:32;6.90;99.90
20946;DHT22;10632;51.276;7.116;2023-04-12T03:01:11;6.90;99.90
20946;DHT22;10632;51.276;7.116;2023-04-12T03:03:51;6.90;99.90
20946;DHT22;10632;51.276;7.116;2023-04-12T03:06:21;6.80;99.90
20946;DHT22;10632;51.276;7.116;2023-04-12T03:08:50;6.80;99.90
20946;DHT22;10632;51.276;7.116;2023-04-12T03:11:27;6.80;99.90
20946;DHT22;10632;51.276;7.116;2023-04-12T03:14:02;6.70;99.90
20946;DHT22;10632;51.276;7.116;2023-04-12T03:16:33;6.80;99.90
20946;DHT22;10632;51.276;7.116;2023-04-12T03:19:05;6.70;99.90
20946;DHT22;10632;51.276;7.116;2023-04-12T03:21:43;6.70;99.90
20946;DHT22;10632;51.276;7.116;2023-04-12T03:24:18;6.70;99.90
20946;DHT22;10632;51.276;7.116;2023-04-12T03:26:55;6.70;99.90
20946;DHT22;10632;51.276;7.116;2023-04-12T03:32:18;6.70;99.90
20946;DHT22;10632;51.276;7.116;2023-04-12T03:34:56;6.70;99.90
20946;DHT22;10632;51.276;7.116;2023-04-12T03:37:31;6.70;99.90
20946;DHT22;10632;51.276;7.116;2023-04-12T03:42:56;6.70;99.90
20946;DHT22;10632;51.276;7.116;2023-04-12T03:45:25;6.70;99.90
20946;DHT22;10632;51.276;7.116;2023-04-12T03:48:20;6.70;99.90
20946;DHT22;10632;51.276;7.116;2023-04-12T03:50:51;6.70;99.90
20946;DHT22;10632;51.276;7.116;2023-04-12T03:53:24;6.70;99.90
20946;DHT22;10632;51.276;7.116;2023-04-12T03:55:54;6.70;99.90
20946;DHT22;10632;51.276;7.116;2023-04-12T03:58:29;6.70;99.90
20946;DHT22;10632;51.276;7.116;2023-04-12T04:00:58;6.70;99.90
20946;DHT22;10632;51.276;7.116;2023-04-12T04:03:26;6.70;99.90
20946;DHT22;10632;51.276;7.116;2023-04-12T04:05:55;6.60;99.90
20946;DHT22;10632;51.276;7.116;2023-04-12T04:08:22;6.70;99.90
20946;DHT22;10632;51.276;7.116;2023-04-12T04:10:49;6.70;99.90
20946;DHT22;10632;51.276;7.116;2023-04-12T04:13:19;6.70;99.90
20946;DHT22;10632;51.276;7.116;2023-04-12T04:15:50;6.70;99.90
20946;DHT22;10632;51.276;7.116;2023-04-12T04:18:17;6.70;99.90
20946;DHT22;10632;51.276;7.116;2023-04-12T04:20:44;6.70;99.90
20946;DHT22;10632;51.276;7.116;2023-04-12T04:23:12;6.70;99.90
20946;DHT22;10632;51.276;7.116;2023-04-12T04:25:39;6.70;99.90
20946;DHT22;10632;51.276;7.116;2023-04-12T04:28:06;6.70;99.90
20946;DHT22;10632;51.276;7.116;2023-04-12T04:30:34;6.70;99.90
20946;DHT22;10632;51.276;7.116;2023-04-12T04:33:03;6.70;99.90
20946;DHT22;10632;51.276;7.116;2023-04-12T04:35:31;6.70;99.90
20946;DHT22;10632;51.276;7.116;2023-04-12T04:37:58;6.70;99.90
20946;DHT22;10632;51.276;7.116;2023-04-12T04:40:27;6.80;99.90
20946;DHT22;10632;51.276;7.116;2023-04-12T04:42:54;6.80;99.90
20946;DHT22;10632;51.276;7.116;2023-04-12T04:45:22;6.80;99.90
20946;DHT22;10632;51.276;7.116;2023-04-12T04:47:51;6.80;99.90
20946;DHT22;10632;51.276;7.116;2023-04-12T04:50:20;6.80;99.90
20946;DHT22;10632;51.276;7.116;2023-04-12T04:52:47;6.90;99.90
20946;DHT22;10632;51.276;7.116;2023-04-12T04:55:14;6.90;99.90
20946;DHT22;10632;51.276;7.116;2023-04-12T04:57:43;6.90;99.90
20946;DHT22;10632;51.276;7.116;2023-04-12T05:00:11;6.90;99.90
20946;DHT22;10632;51.276;7.116;2023-04-12T05:02:39;6.80;99.90
20946;DHT22;10632;51.276;7.116;2023-04-12T05:05:08;6.80;99.90
20946;DHT22;10632;51.276;7.116;2023-04-12T05:07:37;6.90;99.90
20946;DHT22;10632;51.276;7.116;2023-04-12T05:10:05;6.80;99.90
20946;DHT22;10632;51.276;7.116;2023-04-12T05:12:34;6.80;99.90
20946;DHT22;10632;51.276;7.116;2023-04-12T05:15:03;6.80;99.90
20946;DHT22;10632;51.276;7.116;2023-04-12T05:17:30;6.80;99.90
20946;DHT22;10632;51.276;7.116;2023-04-12T05:19:58;6.80;99.90
20946;DHT22;10632;51.276;7.116;2023-04-12T05:22:25;6.80;99.90
20946;DHT22;10632;51.276;7.116;2023-04-12T05:24:54;6.80;99.90
20946;DHT22;10632;51.276;7.116;2023-04-12T05:27:21;6.80;99.90
20946;DHT22;10632;51.276;7.116;2023-04-12T05:29:48;6.80;99.90
20946;DHT22;10632;51.276;7.116;2023-04-12T05:32:16;6.80;99.90
20946;DHT22;10632;51.276;7.116;2023-04-12T05:34:43;6.80;99.90
20946;DHT22;10632;51.276;7.116;2023-04-12T05:37:10;6.70;99.90
20946;DHT22;10632;51.276;7.116;2023-04-12T05:39:37;6.70;99.90
20946;DHT22;10632;51.276;7.116;2023-04-12T05:42:05;6.70;99.90
20946;DHT22;10632;51.276;7.116;2023-04-12T05:44:34;6.70;99.90
20946;DHT22;10632;51.276;7.116;2023-04-12T05:47:03;6.70;99.90
20946;DHT22;10632;51.276;7.116;2023-04-12T05:49:31;6.70;99.90
20946;DHT22;10632;51.276;7.116;2023-04-12T05:51:58;6.70;99.90
20946;DHT22;10632;51.276;7.116;2023-04-12T05:54:25;6.70;99.90
20946;DHT22;10632;51.276;7.116;2023-04-12T05:56:52;6.70;99.90
20946;DHT22;10632;51.276;7.116;2023-04-12T05:59:19;6.70;99.90
20946;DHT22;10632;51.276;7.116;2023-04-12T06:01:47;6.70;99.90
20946;DHT22;10632;51.276;7.116;2023-04-12T06:04:14;6.70;99.90
20946;DHT22;10632;51.276;7.116;2023-04-12T06:06:42;6.70;99.90
20946;DHT22;10632;51.276;7.116;2023-04-12T06:09:09;6.70;99.90
20946;DHT22;10632;51.276;7.116;2023-04-12T06:11:36;6.70;99.90
20946;DHT22;10632;51.276;7.116;2023-04-12T06:14:05;6.70;99.90
20946;DHT22;10632;51.276;7.116;2023-04-12T06:16:31;6.70;99.90
20946;DHT22;10632;51.276;7.116;2023-04-12T06:18:58;6.70;99.90
20946;DHT22;10632;51.276;7.116;2023-04-12T06:21:25;6.70;99.90
20946;DHT22;10632;51.276;7.116;2023-04-12T06:23:54;6.70;99.90
20946;DHT22;10632;51.276;7.116;2023-04-12T06:26:20;6.70;99.90
20946;DHT22;10632;51.276;7.116;2023-04-12T06:28:47;6.70;99.90
20946;DHT22;10632;51.276;7.116;2023-04-12T06:31:14;6.70;99.90
20946;DHT22;10632;51.276;7.116;2023-04-12T06:33:42;6.70;99.90
20946;DHT22;10632;51.276;7.116;2023-04-12T06:36:09;6.70;99.90
20946;DHT22;10632;51.276;7.116;2023-04-12T06:38:37;6.70;99.90
20946;DHT22;10632;51.276;7.116;2023-04-12T06:41:09;6.70;99.90
20946;DHT22;10632;51.276;7.116;2023-04-12T06:43:36;6.80;99.90
20946;DHT22;10632;51.276;7.116;2023-04-12T06:46:03;6.80;99.90
20946;DHT22;10632;51.276;7.116;2023-04-12T06:48:30;6.80;99.90
20946;DHT22;10632;51.276;7.116;2023-04-12T06:50:57;6.80;99.90
20946;DHT22;10632;51.276;7.116;2023-04-12T06:53:23;6.80;99.90
20946;DHT22;10632;51.276;7.116;2023-04-12T06:55:50;6.80;99.90
20946;DHT22;10632;51.276;7.116;2023-04-12T06:58:19;6.80;99.90
20946;DHT22;10632;51.276;7.116;2023-04-12T07:00:46;6.80;99.90
20946;DHT22;10632;51.276;7.116;2023-04-12T07:03:13;6.80;99.90
20946;DHT22;10632;51.276;7.116;2023-04-12T07:05:40;6.90;99.90
20946;DHT22;10632;51.276;7.116;2023-04-12T07:08:07;6.90;99.90
20946;DHT22;10632;51.276;7.116;2023-04-12T07:10:35;6.90;99.90
20946;DHT22;10632;51.276;7.116;2023-04-12T07:13:01;6.90;99.90
20946;DHT22;10632;51.276;7.116;2023-04-12T07:15:33;6.90;99.90
20946;DHT22;10632;51.276;7.116;2023-04-12T07:17:59;6.90;99.90
20946;DHT22;10632;51.276;7.116;2023-04-12T07:20:26;6.90;99.90
20946;DHT22;10632;51.276;7.116;2023-04-12T07:22:53;7.00;99.90
20946;DHT22;10632;51.276;7.116;2023-04-12T07:25:20;7.00;99.90
20946;DHT22;10632;51.276;7.116;2023-04-12T07:27:47;7.00;99.90
20946;DHT22;10632;51.276;7.116;2023-04-12T07:30:14;7.00;99.90
20946;DHT22;10632;51.276;7.116;2023-04-12T07:32:42;7.10;99.90
20946;DHT22;10632;51.276;7.116;2023-04-12T07:35:10;7.10;99.90
20946;DHT22;10632;51.276;7.116;2023-04-12T07:37:37;7.10;99.90
20946;DHT22;10632;51.276;7.116;2023-04-12T07:40:05;7.10;99.90
20946;DHT22;10632;51.276;7.116;2023-04-12T07:42:32;7.10;99.90
20946;DHT22;10632;51.276;7.116;2023-04-12T07:44:59;7.20;99.90
20946;DHT22;10632;51.276;7.116;2023-04-12T07:47:26;7.20;99.90
20946;DHT22;10632;51.276;7.116;2023-04-12T07:49:54;7.20;99.90
20946;DHT22;10632;51.276;7.116;2023-04-12T07:52:22;7.20;99.90
20946;DHT22;10632;51.276;7.116;2023-04-12T07:54:49;7.30;99.90
20946;DHT22;10632;51.276;7.116;2023-04-12T07:57:16;7.30;99.90
20946;DHT22;10632;51.276;7.116;2023-04-12T07:59:42;7.30;99.90
20946;DHT22;10632;51.276;7.116;2023-04-12T08:02:09;7.30;99.90
20946;DHT22;10632;51.276;7.116;2023-04-12T08:04:36;7.40;99.90
20946;DHT22;10632;51.276;7.116;2023-04-12T08:07:05;7.40;99.90
20946;DHT22;10632;51.276;7.116;2023-04-12T08:09:31;7.40;99.90
20946;DHT22;10632;51.276;7.116;2023-04-12T08:11:58;7.50;99.90
20946;DHT22;10632;51.276;7.116;2023-04-12T08:14:26;7.50;99.90
20946;DHT22;10632;51.276;7.116;2023-04-12T08:16:53;7.50;99.90
20946;DHT22;10632;51.276;7.116;2023-04-12T08:19:20;7.50;99.90
20946;DHT22;10632;51.276;7.116;2023-04-12T08:21:46;7.50;99.90
20946;DHT22;10632;51.276;7.116;2023-04-12T08:24:15;7.50;99.90
20946;DHT22;10632;51.276;7.116;2023-04-12T08:26:41;7.50;99.90
20946;DHT22;10632;51.276;7.116;2023-04-12T08:29:08;7.50;99.90
20946;DHT22;10632;51.276;7.116;2023-04-12T08:31:35;7.50;99.90
20946;DHT22;10632;51.276;7.116;2023-04-12T08:34:02;7.50;99.90
20946;DHT22;10632;51.276;7.116;2023-04-12T08:36:29;7.60;99.90
20946;DHT22;10632;51.276;7.116;2023-04-12T08:38:57;7.50;99.90
20946;DHT22;10632;51.276;7.116;2023-04-12T08:41:26;7.60;99.90
20946;DHT22;10632;51.276;7.116;2023-04-12T08:43:56;7.60;99.90
20946;DHT22;10632;51.276;7.116;2023-04-12T08:46:25;7.60;99.90
20946;DHT22;10632;51.276;7.116;2023-04-12T08:48:52;7.70;99.90
20946;DHT22;10632;51.276;7.116;2023-04-12T08:51:20;7.70;99.90
20946;DHT22;10632;51.276;7.116;2023-04-12T08:53:47;7.70;99.90
20946;DHT22;10632;51.276;7.116;2023-04-12T08:56:15;7.80;99.90
20946;DHT22;10632;51.276;7.116;2023-04-12T08:58:46;7.80;99.90
20946;DHT22;10632;51.276;7.116;2023-04-12T09:01:15;7.80;99.90
20946;DHT22;10632;51.276;7.116;2023-04-12T09:03:42;7.80;99.90
20946;DHT22;10632;51.276;7.116;2023-04-12T09:06:09;7.80;99.90
20946;DHT22;10632;51.276;7.116;2023-04-12T09:08:36;8.00;99.90
20946;DHT22;10632;51.276;7.116;2023-04-12T09:11:20;8.00;99.90
20946;DHT22;10632;51.276;7.116;2023-04-12T09:13:49;8.00;99.90
20946;DHT22;10632;51.276;7.116;2023-04-12T09:16:16;8.00;99.90
20946;DHT22;10632;51.276;7.116;2023-04-12T09:18:47;8.10;99.90
20946;DHT22;10632;51.276;7.116;2023-04-12T09:21:16;8.00;99.90
20946;DHT22;10632;51.276;7.116;2023-04-12T09:23:43;8.00;99.90
20946;DHT22;10632;51.276;7.116;2023-04-12T09:26:26;8.00;99.90
20946;DHT22;10632;51.276;7.116;2023-04-12T09:28:55;8.00;99.90
20946;DHT22;10632;51.276;7.116;2023-04-12T09:31:22;8.00;99.90
20946;DHT22;10632;51.276;7.116;2023-04-12T09:33:49;8.00;99.90
20946;DHT22;10632;51.276;7.116;2023-04-12T09:36:16;8.00;99.90
20946;DHT22;10632;51.276;7.116;2023-04-12T09:38:57;8.10;99.90
20946;DHT22;10632;51.276;7.116;2023-04-12T09:41:25;8.10;99.90
20946;DHT22;10632;51.276;7.116;2023-04-12T09:43:56;8.20;99.90
20946;DHT22;10632;51.276;7.116;2023-04-12T09:46:23;8.20;99.90
20946;DHT22;10632;51.276;7.116;2023-04-12T09:48:52;8.20;99.90
20946;DHT22;10632;51.276;7.116;2023-04-12T09:51:26;8.20;99.90
20946;DHT22;10632;51.276;7.116;2023-04-12T09:53:54;8.20;99.90
20946;DHT22;10632;51.276;7.116;2023-04-12T09:56:29;8.20;99.90
20946;DHT22;10632;51.276;7.116;2023-04-12T09:59:00;8.20;99.90
20946;DHT22;10632;51.276;7.116;2023-04-12T10:01:28;8.30;99.90
20946;DHT22;10632;51.276;7.116;2023-04-12T10:03:56;8.30;99.90
20946;DHT22;10632;51.276;7.116;2023-04-12T10:06:24;8.30;99.90
20946;DHT22;10632;51.276;7.116;2023-04-12T10:08:53;8.30;99.90
20946;DHT22;10632;51.276;7.116;2023-04-12T10:11:21;8.30;99.90
20946;DHT22;10632;51.276;7.116;2023-04-12T10:13:48;8.40;99.90
20946;DHT22;10632;51.276;7.116;2023-04-12T10:16:17;8.40;99.90
20946;DHT22;10632;51.276;7.116;2023-04-12T10:18:45;8.40;99.90
20946;DHT22;10632;51.276;7.116;2023-04-12T10:21:13;8.50;99.90
20946;DHT22;10632;51.276;7.116;2023-04-12T10:23:44;8.50;99.90
20946;DHT22;10632;51.276;7.116;2023-04-12T10:26:14;8.50;99.90
20946;DHT22;10632;51.276;7.116;2023-04-12T10:28:42;8.60;99.90
20946;DHT22;10632;51.276;7.116;2023-04-12T10:31:30;8.60;99.90
20946;DHT22;10632;51.276;7.116;2023-04-12T10:34:00;8.60;99.90
20946;DHT22;10632;51.276;7.116;2023-04-12T10:36:51;8.70;99.90
20946;DHT22;10632;51.276;7.116;2023-04-12T10:39:36;8.70;99.90
20946;DHT22;10632;51.276;7.116;2023-04-12T10:42:25;8.70;99.90
20946;DHT22;10632;51.276;7.116;2023-04-12T10:44:53;8.80;99.90
20946;DHT22;10632;51.276;7.116;2023-04-12T10:47:55;8.90;99.90
20946;DHT22;10632;51.276;7.116;2023-04-12T10:50:26;9.00;99.90
20946;DHT22;10632;51.276;7.116;2023-04-12T10:53:22;9.00;99.90
20946;DHT22;10632;51.276;7.116;2023-04-12T10:55:51;9.00;99.90
20946;DHT22;10632;51.276;7.116;2023-04-12T10:58:54;9.00;99.90
20946;DHT22;10632;51.276;7.116;2023-04-12T11:01:22;9.00;99.90
20946;DHT22;10632;51.276;7.116;2023-04-12T11:04:09;9.00;99.90
20946;DHT22;10632;51.276;7.116;2023-04-12T11:06:45;9.00;99.90
20946;DHT22;10632;51.276;7.116;2023-04-12T11:09:20;9.00;99.90
20946;DHT22;10632;51.276;7.116;2023-04-12T11:11:47;9.00;99.90
20946;DHT22;10632;51.276;7.116;2023-04-12T11:14:17;8.90;99.90
20946;DHT22;10632;51.276;7.116;2023-04-12T11:17:21;8.90;99.90
20946;DHT22;10632;51.276;7.116;2023-04-12T11:19:52;8.70;99.90
20946;DHT22;10632;51.276;7.116;2023-04-12T11:22:23;8.70;99.90
20946;DHT22;10632;51.276;7.116;2023-04-12T11:24:51;8.70;99.90
20946;DHT22;10632;51.276;7.116;2023-04-12T11:27:19;8.70;99.90
20946;DHT22;10632;51.276;7.116;2023-04-12T11:29:50;8.60;99.90
20946;DHT22;10632;51.276;7.116;2023-04-12T11:32:20;8.60;99.90
20946;DHT22;10632;51.276;7.116;2023-04-12T11:34:47;8.70;99.90
20946;DHT22;10632;51.276;7.116;2023-04-12T11:37:17;8.70;99.90
20946;DHT22;10632;51.276;7.116;2023-04-12T11:39:45;8.70;99.90
20946;DHT22;10632;51.276;7.116;2023-04-12T11:42:13;8.70;99.90
20946;DHT22;10632;51.276;7.116;2023-04-12T11:44:42;8.80;99.90
20946;DHT22;10632;51.276;7.116;2023-04-12T11:47:13;8.90;99.90
20946;DHT22;10632;51.276;7.116;2023-04-12T11:49:45;8.90;99.90
20946;DHT22;10632;51.276;7.116;2023-04-12T11:52:12;9.00;99.90
20946;DHT22;10632;51.276;7.116;2023-04-12T11:54:45;9.10;99.90
20946;DHT22;10632;51.276;7.116;2023-04-12T11:57:13;9.10;99.90
20946;DHT22;10632;51.276;7.116;2023-04-12T11:59:43;9.10;99.90
20946;DHT22;10632;51.276;7.116;2023-04-12T12:02:10;9.10;99.90
20946;DHT22;10632;51.276;7.116;2023-04-12T12:04:39;9.10;99.90
20946;DHT22;10632;51.276;7.116;2023-04-12T12:07:06;9.10;99.90
20946;DHT22;10632;51.276;7.116;2023-04-12T12:09:34;9.10;99.90
20946;DHT22;10632;51.276;7.116;2023-04-12T12:12:02;9.10;99.90
20946;DHT22;10632;51.276;7.116;2023-04-12T12:14:33;9.10;99.90
20946;DHT22;10632;51.276;7.116;2023-04-12T12:17:00;9.10;99.90
20946;DHT22;10632;51.276;7.116;2023-04-12T12:19:29;9.10;99.90
20946;DHT22;10632;51.276;7.116;2023-04-12T12:22:08;9.20;99.90
20946;DHT22;10632;51.276;7.116;2023-04-12T12:24:36;9.20;99.90
20946;DHT22;10632;51.276;7.116;2023-04-12T12:27:04;9.30;99.90
20946;DHT22;10632;51.276;7.116;2023-04-12T12:29:34;9.30;99.90
20946;DHT22;10632;51.276;7.116;2023-04-12T12:32:02;9.40;99.90
20946;DHT22;10632;51.276;7.116;2023-04-12T12:34:31;9.50;99.90
20946;DHT22;10632;51.276;7.116;2023-04-12T12:36:59;9.50;99.90
20946;DHT22;10632;51.276;7.116;2023-04-12T12:39:29;9.50;99.90
20946;DHT22;10632;51.276;7.116;2023-04-12T12:42:03;9.60;99.90
20946;DHT22;10632;51.276;7.116;2023-04-12T12:44:58;9.60;99.90
20946;DHT22;10632;51.276;7.116;2023-04-12T12:47:30;9.60;99.90
20946;DHT22;10632;51.276;7.116;2023-04-12T12:50:03;9.60;99.90
20946;DHT22;10632;51.276;7.116;2023-04-12T12:52:37;9.60;99.90
20946;DHT22;10632;51.276;7.116;2023-04-12T12:55:15;9.60;99.90
20946;DHT22;10632;51.276;7.116;2023-04-12T12:57:42;9.60;99.90
20946;DHT22;10632;51.276;7.116;2023-04-12T13:00:17;9.70;99.90
20946;DHT22;10632;51.276;7.116;2023-04-12T13:05:19;9.90;99.90
20946;DHT22;10632;51.276;7.116;2023-04-12T13:07:48;9.90;99.90
20946;DHT22;10632;51.276;7.116;2023-04-12T13:10:16;9.90;99.90
20946;DHT22;10632;51.276;7.116;2023-04-12T13:12:42;9.80;99.90
20946;DHT22;10632;51.276;7.116;2023-04-12T13:15:11;9.80;99.90
20946;DHT22;10632;51.276;7.116;2023-04-12T13:17:39;9.80;99.90
20946;DHT22;10632;51.276;7.116;2023-04-12T13:20:06;9.90;99.90
20946;DHT22;10632;51.276;7.116;2023-04-12T13:22:34;9.90;99.90
20946;DHT22;10632;51.276;7.116;2023-04-12T13:25:01;10.00;99.90
20946;DHT22;10632;51.276;7.116;2023-04-12T13:27:28;10.20;99.90
20946;DHT22;10632;51.276;7.116;2023-04-12T13:29:55;10.40;99.90
20946;DHT22;10632;51.276;7.116;2023-04-12T13:32:23;10.50;99.90
20946;DHT22;10632;51.276;7.116;2023-04-12T13:34:50;10.50;99.90
20946;DHT22;10632;51.276;7.116;2023-04-12T13:37:17;10.40;99.90
20946;DHT22;10632;51.276;7.116;2023-04-12T13:39:44;10.30;99.90
20946;DHT22;10632;51.276;7.116;2023-04-12T13:42:11;10.30;99.90
20946;DHT22;10632;51.276;7.116;2023-04-12T13:44:38;10.20;99.90
20946;DHT22;10632;51.276;7.116;2023-04-12T13:47:05;10.20;99.90
20946;DHT22;10632;51.276;7.116;2023-04-12T13:49:33;10.20;99.90
20946;DHT22;10632;51.276;7.116;2023-04-12T13:52:01;10.40;99.90
20946;DHT22;10632;51.276;7.116;2023-04-12T13:54:28;10.60;99.90
20946;DHT22;10632;51.276;7.116;2023-04-12T13:56:56;10.70;99.90
20946;DHT22;10632;51.276;7.116;2023-04-12T13:59:23;10.70;99.90
20946;DHT22;10632;51.276;7.116;2023-04-12T14:01:50;10.60;99.90
20946;DHT22;10632;51.276;7.116;2023-04-12T14:04:17;10.50;99.90
20946;DHT22;10632;51.276;7.116;2023-04-12T14:06:45;10.40;99.90
20946;DHT22;10632;51.276;7.116;2023-04-12T14:09:22;10.40;99.90
20946;DHT22;10632;51.276;7.116;2023-04-12T14:11:49;10.40;99.90
20946;DHT22;10632;51.276;7.116;2023-04-12T14:14:17;10.40;99.90
20946;DHT22;10632;51.276;7.116;2023-04-12T14:16:44;10.40;99.90
20946;DHT22;10632;51.276;7.116;2023-04-12T14:19:11;10.40;99.90
20946;DHT22;10632;51.276;7.116;2023-04-12T14:21:38;10.40;99.90
20946;DHT22;10632;51.276;7.116;2023-04-12T14:24:06;10.40;99.90
20946;DHT22;10632;51.276;7.116;2023-04-12T14:26:33;10.40;99.90
20946;DHT22;10632;51.276;7.116;2023-04-12T14:29:01;10.40;99.90
20946;DHT22;10632;51.276;7.116;2023-04-12T14:31:27;10.40;99.90
20946;DHT22;10632;51.276;7.116;2023-04-12T14:33:54;10.20;99.90
20946;DHT22;10632;51.276;7.116;2023-04-12T14:36:21;10.00;99.90
20946;DHT22;10632;51.276;7.116;2023-04-12T14:38:48;9.80;99.90
20946;DHT22;10632;51.276;7.116;2023-04-12T14:41:16;9.60;99.90
20946;DHT22;10632;51.276;7.116;2023-04-12T14:43:43;9.20;99.90
20946;DHT22;10632;51.276;7.116;2023-04-12T14:46:11;8.90;99.90
20946;DHT22;10632;51.276;7.116;2023-04-12T14:48:38;8.50;99.90
20946;DHT22;10632;51.276;7.116;2023-04-12T14:51:06;8.20;99.90
20946;DHT22;10632;51.276;7.116;2023-04-12T14:53:33;8.00;99.90
20946;DHT22;10632;51.276;7.116;2023-04-12T14:56:00;7.80;99.90
20946;DHT22;10632;51.276;7.116;2023-04-12T14:58:28;7.60;99.90
20946;DHT22;10632;51.276;7.116;2023-04-12T15:00:55;7.50;99.90
20946;DHT22;10632;51.276;7.116;2023-04-12T15:03:23;7.50;99.90
20946;DHT22;10632;51.276;7.116;2023-04-12T15:05:50;7.40;99.90
20946;DHT22;10632;51.276;7.116;2023-04-12T15:08:17;7.40;99.90
20946;DHT22;10632;51.276;7.116;2023-04-12T15:10:44;7.40;99.90
20946;DHT22;10632;51.276;7.116;2023-04-12T15:13:11;7.60;99.90
20946;DHT22;10632;51.276;7.116;2023-04-12T15:15:40;7.80;99.90
20946;DHT22;10632;51.276;7.116;2023-04-12T15:18:07;7.90;99.90
20946;DHT22;10632;51.276;7.116;2023-04-12T15:20:35;8.00;99.90
20946;DHT22;10632;51.276;7.116;2023-04-12T15:23:02;8.10;99.90
20946;DHT22;10632;51.276;7.116;2023-04-12T15:25:30;8.20;99.90
20946;DHT22;10632;51.276;7.116;2023-04-12T15:27:57;8.20;99.90
20946;DHT22;10632;51.276;7.116;2023-04-12T15:30:25;8.20;99.90
20946;DHT22;10632;51.276;7.116;2023-04-12T15:32:53;8.30;99.90
20946;DHT22;10632;51.276;7.116;2023-04-12T15:35:21;8.30;99.90
20946;DHT22;10632;51.276;7.116;2023-04-12T15:37:49;8.30;99.90
20946;DHT22;10632;51.276;7.116;2023-04-12T15:40:17;8.30;99.90
20946;DHT22;10632;51.276;7.116;2023-04-12T15:42:45;8.20;99.90
20946;DHT22;10632;51.276;7.116;2023-04-12T15:45:12;8.10;99.90
20946;DHT22;10632;51.276;7.116;2023-04-12T15:47:39;7.90;99.90
20946;DHT22;10632;51.276;7.116;2023-04-12T15:50:08;7.70;99.90
20946;DHT22;10632;51.276;7.116;2023-04-12T15:52:36;7.50;99.90
20946;DHT22;10632;51.276;7.116;2023-04-12T15:55:08;7.50;99.90
20946;DHT22;10632;51.276;7.116;2023-04-12T15:57:36;7.50;99.90
20946;DHT22;10632;51.276;7.116;2023-04-12T16:00:06;7.60;99.90
20946;DHT22;10632;51.276;7.116;2023-04-12T16:02:45;7.60;99.90
20946;DHT22;10632;51.276;7.116;2023-04-12T16:05:19;7.70;99.90
20946;DHT22;10632;51.276;7.116;2023-04-12T16:07:46;7.60;99.90
20946;DHT22;10632;51.276;7.116;2023-04-12T16:10:16;7.50;99.90
20946;DHT22;10632;51.276;7.116;2023-04-12T16:12:45;7.50;99.90
20946;DHT22;10632;51.276;7.116;2023-04-12T16:15:14;7.40;99.90
20946;DHT22;10632;51.276;7.116;2023-04-12T16:17:41;7.40;99.90
20946;DHT22;10632;51.276;7.116;2023-04-12T16:20:10;7.40;99.90
20946;DHT22;10632;51.276;7.116;2023-04-12T16:22:43;7.40;99.90